createdAt,value
2017-12-06T05:35:31.529Z,6.39
2017-12-06T05:36:31.503Z,6.28
2017-12-06T05:38:24.876Z,6.26
2017-12-06T05:39:24.857Z,6.20
2017-12-06T05:41:19.302Z,6.26
2017-12-06T05:42:19.205Z,6.22
2017-12-06T05:44:12.574Z,6.27
2017-12-06T05:45:12.556Z,6.19
2017-12-06T05:47:05.929Z,6.27
2017-12-06T05:48:05.907Z,6.27
2017-12-06T05:49:59.544Z,6.31
2017-12-06T05:50:59.260Z,6.49
2017-12-06T05:51:59.270Z,6.45
2017-12-06T05:52:59.249Z,6.36
2017-12-06T05:53:59.239Z,6.45
2017-12-06T05:54:59.236Z,6.48
2017-12-06T05:55:59.231Z,6.39
2017-12-06T05:56:59.225Z,6.42
2017-12-06T05:57:59.220Z,6.31
2017-12-06T05:58:59.219Z,6.36
2017-12-06T05:59:59.215Z,6.30
2017-12-06T06:00:59.201Z,6.28
2017-12-06T06:01:59.199Z,6.38
2017-12-06T06:02:59.189Z,6.41
2017-12-06T06:03:59.182Z,6.35
2017-12-06T06:04:59.182Z,6.45
2017-12-06T06:05:59.176Z,6.38
2017-12-06T06:06:59.170Z,6.22
2017-12-06T06:07:59.164Z,6.33
2017-12-06T06:08:59.164Z,6.38
2017-12-06T06:09:59.157Z,6.36
2017-12-06T06:10:59.148Z,6.39
2017-12-06T06:11:59.141Z,6.35
2017-12-06T06:12:59.137Z,6.33
2017-12-06T06:13:59.132Z,6.28
2017-12-06T06:14:59.126Z,6.24
2017-12-06T06:15:59.123Z,6.33
2017-12-06T06:16:59.118Z,6.22
2017-12-06T06:17:59.116Z,6.30
2017-12-06T06:18:59.100Z,6.36
2017-12-06T06:19:59.097Z,6.39
2017-12-06T06:20:59.091Z,6.39
2017-12-06T06:21:59.087Z,6.35
2017-12-06T06:22:59.080Z,6.31
2017-12-06T06:23:59.078Z,6.31
2017-12-06T06:24:59.073Z,6.46
2017-12-06T06:25:59.067Z,6.49
2017-12-06T06:26:59.060Z,6.46
2017-12-06T06:27:59.057Z,6.48
2017-12-06T06:28:59.047Z,6.48
2017-12-06T06:29:59.045Z,6.36
2017-12-06T06:30:59.036Z,6.41
2017-12-06T06:31:59.031Z,6.38
2017-12-06T06:32:59.031Z,6.39
2017-12-06T06:33:59.026Z,6.42
2017-12-06T06:34:59.016Z,6.44
2017-12-06T06:35:59.011Z,6.49
2017-12-06T06:36:59.004Z,6.45
2017-12-06T06:37:59.001Z,6.46
2017-12-06T06:38:58.996Z,6.54
2017-12-06T06:39:58.988Z,6.49
2017-12-06T06:40:58.985Z,6.45
2017-12-06T06:41:58.982Z,6.48
2017-12-06T06:42:58.982Z,6.49
2017-12-06T06:43:58.969Z,6.39
2017-12-06T06:44:58.965Z,6.51
2017-12-06T06:45:58.956Z,6.44
2017-12-06T06:46:58.950Z,6.46
2017-12-06T06:47:58.947Z,6.44
2017-12-06T06:48:58.940Z,6.45
2017-12-06T06:49:58.935Z,6.60
2017-12-06T06:50:58.931Z,6.51
2017-12-06T06:51:58.925Z,6.57
2017-12-06T06:52:58.917Z,6.56
2017-12-06T06:53:58.915Z,6.63
2017-12-06T06:54:58.907Z,6.59
2017-12-06T06:55:58.903Z,6.46
2017-12-06T06:56:58.897Z,6.49
2017-12-06T06:57:58.892Z,6.51
2017-12-06T06:58:58.886Z,6.39
2017-12-06T06:59:58.882Z,6.46
2017-12-06T07:00:58.875Z,6.36
2017-12-06T07:01:58.876Z,6.45
2017-12-06T07:02:58.865Z,6.41
2017-12-06T07:03:58.860Z,6.46
2017-12-06T07:04:58.865Z,6.39
2017-12-06T07:05:58.850Z,6.41
2017-12-06T07:06:58.844Z,6.45
2017-12-06T07:07:58.836Z,6.48
2017-12-06T07:08:58.836Z,6.54
2017-12-06T07:09:58.830Z,6.51
2017-12-06T07:10:58.828Z,6.45
2017-12-06T07:11:58.817Z,6.52
2017-12-06T07:12:58.813Z,6.48
2017-12-06T07:13:58.809Z,6.49
2017-12-06T07:14:58.805Z,6.49
2017-12-06T07:15:58.797Z,6.51
2017-12-06T07:16:58.791Z,6.46
2017-12-06T07:17:58.785Z,6.48
2017-12-06T07:18:58.779Z,6.42
2017-12-06T07:19:58.774Z,6.52
2017-12-06T07:20:58.770Z,6.44
2017-12-06T07:21:58.766Z,6.45
2017-12-06T07:22:58.763Z,6.38
2017-12-06T07:23:58.754Z,6.44
2017-12-06T07:24:58.747Z,6.38
2017-12-06T07:25:58.743Z,6.35
2017-12-06T07:26:58.739Z,6.33
2017-12-06T07:27:58.734Z,6.27
2017-12-06T07:28:58.729Z,6.24
2017-12-06T07:29:58.769Z,6.24
2017-12-06T07:30:58.717Z,6.39
2017-12-06T07:31:58.710Z,6.39
2017-12-06T07:32:58.712Z,6.46
2017-12-06T07:33:58.700Z,6.45
2017-12-06T07:34:58.696Z,6.51
2017-12-06T07:35:58.691Z,6.38
2017-12-06T07:36:58.683Z,6.51
2017-12-06T07:37:58.682Z,6.44
2017-12-06T07:38:58.672Z,6.42
2017-12-06T07:39:58.667Z,6.57
2017-12-06T07:40:58.668Z,6.51
2017-12-06T07:41:58.659Z,6.45
2017-12-06T07:42:58.653Z,6.51
2017-12-06T07:43:58.647Z,6.45
2017-12-06T07:44:58.643Z,6.45
2017-12-06T07:45:58.637Z,6.49
2017-12-06T07:46:58.632Z,6.51
2017-12-06T07:47:58.625Z,6.51
2017-12-06T07:48:58.622Z,6.56
2017-12-06T07:49:58.617Z,6.60
2017-12-06T07:50:58.610Z,6.45
2017-12-06T07:51:58.607Z,6.57
2017-12-06T07:52:58.612Z,6.46
2017-12-06T07:53:58.596Z,6.56
2017-12-06T07:54:58.589Z,6.57
2017-12-06T07:55:58.584Z,6.59
2017-12-06T07:56:58.584Z,6.54
2017-12-06T07:57:58.574Z,6.62
2017-12-06T07:58:58.580Z,6.59
2017-12-06T07:59:58.561Z,6.56
2017-12-06T08:00:58.559Z,6.62
2017-12-06T08:01:58.552Z,6.59
2017-12-06T08:02:58.547Z,6.62
2017-12-06T08:03:58.540Z,6.59
2017-12-06T08:04:58.539Z,6.52
2017-12-06T08:05:58.534Z,6.54
2017-12-06T08:06:58.545Z,6.60
2017-12-06T08:07:58.522Z,6.56
2017-12-06T08:08:58.514Z,6.59
2017-12-06T08:09:58.510Z,6.48
2017-12-06T08:10:58.504Z,6.49
2017-12-06T08:11:58.507Z,6.49
2017-12-06T08:12:58.494Z,6.51
2017-12-06T08:13:58.490Z,6.56
2017-12-06T08:14:58.480Z,6.54
2017-12-06T08:15:58.479Z,6.54
2017-12-06T08:16:58.474Z,6.60
2017-12-06T08:17:58.469Z,6.72
2017-12-06T08:18:58.463Z,6.75
2017-12-06T08:19:58.459Z,6.74
2017-12-06T08:20:58.454Z,6.81
2017-12-06T08:21:58.465Z,6.78
2017-12-06T08:22:58.438Z,6.77
2017-12-06T08:23:58.438Z,6.72
2017-12-06T08:24:58.433Z,6.74
2017-12-06T08:25:58.431Z,6.75
2017-12-06T08:26:58.423Z,6.78
2017-12-06T08:27:58.418Z,6.77
2017-12-06T08:28:58.415Z,6.75
2017-12-06T08:29:58.410Z,6.74
2017-12-06T08:30:58.403Z,6.75
2017-12-06T08:31:58.398Z,6.70
2017-12-06T08:32:58.392Z,6.78
2017-12-06T08:33:58.387Z,6.75
2017-12-06T08:34:58.382Z,6.77
2017-12-06T08:35:58.377Z,6.69
2017-12-06T08:36:58.374Z,6.75
2017-12-06T08:37:58.368Z,6.78
2017-12-06T08:38:58.366Z,6.78
2017-12-06T08:39:58.356Z,6.72
2017-12-06T08:40:58.355Z,6.74
2017-12-06T08:41:58.346Z,6.52
2017-12-06T08:42:58.340Z,6.64
2017-12-06T08:43:58.338Z,6.63
2017-12-06T08:44:58.329Z,6.64
2017-12-06T08:45:58.326Z,6.56
2017-12-06T08:46:58.321Z,6.69
2017-12-06T08:47:58.318Z,6.69
2017-12-06T08:48:58.311Z,6.51
2017-12-06T08:49:58.308Z,6.56
2017-12-06T08:50:58.300Z,6.56
2017-12-06T08:51:58.296Z,6.56
2017-12-06T08:52:58.290Z,6.66
2017-12-06T08:53:58.286Z,6.70
2017-12-06T08:54:58.280Z,6.66
2017-12-06T08:55:58.269Z,6.66
2017-12-06T08:56:58.271Z,6.78
2017-12-06T08:57:58.264Z,6.87
2017-12-06T08:58:58.261Z,6.78
2017-12-06T08:59:58.254Z,6.77
2017-12-06T09:00:58.249Z,6.72
2017-12-06T09:01:58.244Z,6.60
2017-12-06T09:02:58.237Z,6.59
2017-12-06T09:03:58.236Z,6.60
2017-12-06T09:04:58.228Z,6.59
2017-12-06T09:05:58.235Z,6.57
2017-12-06T09:06:58.220Z,6.59
2017-12-06T09:07:58.215Z,6.60
2017-12-06T09:08:58.210Z,6.57
2017-12-06T09:09:58.204Z,6.59
2017-12-06T09:10:58.200Z,6.48
2017-12-06T09:11:58.194Z,6.54
2017-12-06T09:12:58.186Z,6.59
2017-12-06T09:13:58.183Z,6.57
2017-12-06T09:14:58.177Z,6.54
2017-12-06T09:15:58.174Z,6.49
2017-12-06T09:16:58.168Z,6.54
2017-12-06T09:17:58.162Z,6.57
2017-12-06T09:18:58.156Z,6.70
2017-12-06T09:19:58.152Z,6.63
2017-12-06T09:20:58.146Z,6.74
2017-12-06T09:21:58.146Z,6.72
2017-12-06T09:22:58.135Z,6.87
2017-12-06T09:23:58.130Z,6.75
2017-12-06T09:24:58.124Z,6.81
2017-12-06T09:25:58.121Z,6.75
2017-12-06T09:26:58.117Z,6.66
2017-12-06T09:27:58.111Z,6.79
2017-12-06T09:28:58.107Z,6.77
2017-12-06T09:29:58.102Z,6.79
2017-12-06T09:30:58.095Z,6.77
2017-12-06T09:31:58.091Z,6.74
2017-12-06T09:32:58.088Z,6.72
2017-12-06T09:33:58.081Z,6.70
2017-12-06T09:34:58.080Z,6.77
2017-12-06T09:35:58.137Z,6.72
2017-12-06T09:36:58.064Z,6.66
2017-12-06T09:37:58.059Z,6.62
2017-12-06T09:38:58.057Z,6.72
2017-12-06T09:39:58.050Z,6.74
2017-12-06T09:40:58.045Z,6.62
2017-12-06T09:41:58.038Z,6.78
2017-12-06T09:42:58.038Z,6.75
2017-12-06T09:43:58.028Z,6.78
2017-12-06T09:44:58.026Z,6.82
2017-12-06T09:45:58.023Z,6.89
2017-12-06T09:46:58.015Z,6.75
2017-12-06T09:47:58.009Z,6.79
2017-12-06T09:48:58.001Z,6.70
2017-12-06T09:49:58.000Z,6.75
2017-12-06T09:50:57.996Z,6.62
2017-12-06T09:51:57.990Z,6.63
2017-12-06T09:52:57.987Z,6.56
2017-12-06T09:53:57.980Z,6.69
2017-12-06T09:54:57.971Z,6.59
2017-12-06T09:55:57.972Z,6.66
2017-12-06T09:56:57.964Z,6.74
2017-12-06T09:57:57.958Z,6.78
2017-12-06T09:58:57.953Z,6.74
2017-12-06T09:59:57.949Z,6.78
2017-12-06T10:00:57.945Z,6.84
2017-12-06T10:01:57.939Z,6.92
2017-12-06T10:02:57.933Z,6.87
2017-12-06T10:03:57.928Z,6.75
2017-12-06T10:04:57.926Z,6.77
2017-12-06T10:05:57.920Z,6.74
2017-12-06T10:06:57.914Z,6.82
2017-12-06T10:07:57.914Z,6.67
2017-12-06T10:08:57.908Z,6.75
2017-12-06T10:09:57.900Z,6.77
2017-12-06T10:10:57.896Z,6.78
2017-12-06T10:11:57.888Z,6.74
2017-12-06T10:12:57.883Z,6.77
2017-12-06T10:13:57.883Z,6.79
2017-12-06T10:14:57.875Z,6.77
2017-12-06T10:15:57.866Z,6.75
2017-12-06T10:16:57.862Z,6.69
2017-12-06T10:17:57.862Z,6.72
2017-12-06T10:18:57.854Z,6.88
2017-12-06T10:19:57.851Z,6.95
2017-12-06T10:20:57.844Z,6.93
2017-12-06T10:21:57.845Z,6.84
2017-12-06T10:22:57.837Z,6.79
2017-12-06T10:23:57.830Z,6.81
2017-12-06T10:24:57.825Z,6.84
2017-12-06T10:25:57.816Z,6.84
2017-12-06T10:26:57.818Z,6.84
2017-12-06T10:27:57.812Z,6.75
2017-12-06T10:28:57.809Z,6.81
2017-12-06T10:29:57.802Z,6.81
2017-12-06T10:30:57.795Z,6.75
2017-12-06T10:31:57.790Z,6.77
2017-12-06T10:32:57.794Z,6.75
2017-12-06T10:33:57.782Z,6.62
2017-12-06T10:34:57.776Z,6.70
2017-12-06T10:35:57.771Z,6.74
2017-12-06T10:36:57.767Z,6.69
2017-12-06T10:37:57.765Z,6.75
2017-12-06T10:38:57.764Z,6.72
2017-12-06T10:39:57.754Z,6.77
2017-12-06T10:40:57.757Z,6.82
2017-12-06T10:41:57.777Z,6.92
2017-12-06T10:42:57.737Z,6.85
2017-12-06T10:43:57.732Z,6.85
2017-12-06T10:44:57.723Z,6.82
2017-12-06T10:45:57.737Z,6.81
2017-12-06T10:46:57.721Z,6.82
2017-12-06T10:47:57.713Z,6.81
2017-12-06T10:48:57.709Z,6.77
2017-12-06T10:49:57.704Z,6.72
2017-12-06T10:50:57.730Z,6.84
2017-12-06T10:51:57.693Z,6.88
2017-12-06T10:52:57.689Z,6.82
2017-12-06T10:53:57.685Z,6.81
2017-12-06T10:54:57.677Z,6.89
2017-12-06T10:55:57.677Z,6.87
2017-12-06T10:56:57.671Z,6.87
2017-12-06T10:57:57.681Z,6.95
2017-12-06T10:58:57.670Z,6.95
2017-12-06T10:59:57.657Z,6.87
2017-12-06T11:00:57.650Z,7.00
2017-12-06T11:01:57.640Z,7.02
2017-12-06T11:02:57.641Z,6.92
2017-12-06T11:03:57.635Z,7.00
2017-12-06T11:04:57.633Z,7.06
2017-12-06T11:05:57.633Z,6.96
2017-12-06T11:06:57.623Z,6.97
2017-12-06T11:07:57.616Z,6.89
2017-12-06T11:08:57.617Z,6.79
2017-12-06T11:09:57.609Z,6.74
2017-12-06T11:10:57.603Z,6.70
2017-12-06T11:11:57.606Z,6.75
2017-12-06T11:12:57.593Z,6.75
2017-12-06T11:13:57.588Z,6.70
2017-12-06T11:14:57.594Z,6.63
2017-12-06T11:15:57.577Z,6.70
2017-12-06T11:16:57.576Z,6.70
2017-12-06T11:17:57.570Z,6.64
2017-12-06T11:18:57.565Z,6.74
2017-12-06T11:19:57.567Z,6.77
2017-12-06T11:20:57.610Z,6.69
2017-12-06T11:21:57.549Z,6.75
2017-12-06T11:22:57.544Z,6.85
2017-12-06T11:23:57.541Z,6.85
2017-12-06T11:24:57.535Z,6.70
2017-12-06T11:25:57.530Z,6.75
2017-12-06T11:26:57.523Z,6.85
2017-12-06T11:27:57.515Z,6.85
2017-12-06T11:28:57.511Z,6.95
2017-12-06T11:29:57.512Z,6.92
2017-12-06T11:30:57.532Z,6.88
2017-12-06T11:31:57.500Z,6.92
2017-12-06T11:32:57.498Z,6.88
2017-12-06T11:33:57.490Z,6.96
2017-12-06T11:34:57.484Z,7.00
2017-12-06T11:35:57.482Z,6.96
2017-12-06T11:36:57.474Z,7.00
2017-12-06T11:37:57.470Z,7.07
2017-12-06T11:38:57.464Z,7.06
2017-12-06T11:39:57.462Z,7.06
2017-12-06T11:40:57.456Z,6.97
2017-12-06T11:41:57.451Z,6.99
2017-12-06T11:42:57.445Z,6.92
2017-12-06T11:43:57.439Z,6.92
2017-12-06T11:44:57.437Z,7.02
2017-12-06T11:45:57.431Z,6.97
2017-12-06T11:46:57.430Z,6.99
2017-12-06T11:47:57.422Z,6.95
2017-12-06T11:48:57.417Z,6.89
2017-12-06T11:49:57.412Z,6.92
2017-12-06T11:50:57.410Z,7.03
2017-12-06T11:51:57.407Z,6.99
2017-12-06T11:52:57.399Z,6.89
2017-12-06T11:53:57.404Z,6.96
2017-12-06T11:54:57.388Z,6.89
2017-12-06T11:55:57.384Z,6.89
2017-12-06T11:56:57.383Z,6.85
2017-12-06T11:57:57.374Z,6.84
2017-12-06T11:58:57.367Z,6.77
2017-12-06T11:59:57.376Z,6.72
2017-12-06T12:00:57.371Z,6.81
2017-12-06T12:01:57.357Z,6.79
2017-12-06T12:02:57.351Z,6.85
2017-12-06T12:03:57.345Z,6.92
2017-12-06T12:04:57.339Z,6.95
2017-12-06T12:05:57.337Z,7.03
2017-12-06T12:06:57.331Z,6.89
2017-12-06T12:07:57.321Z,6.88
2017-12-06T12:08:57.322Z,6.87
2017-12-06T12:09:57.323Z,6.84
2017-12-06T12:10:57.310Z,6.87
2017-12-06T12:11:57.308Z,6.93
2017-12-06T12:12:57.306Z,6.96
2017-12-06T12:13:57.310Z,7.05
2017-12-06T12:14:57.292Z,7.05
2017-12-06T12:15:57.299Z,7.00
2017-12-06T12:16:57.286Z,6.99
2017-12-06T12:17:57.278Z,7.02
2017-12-06T12:18:57.274Z,6.99
2017-12-06T12:19:57.270Z,6.92
2017-12-06T12:20:57.265Z,6.99
2017-12-06T12:21:57.259Z,6.95
2017-12-06T12:22:57.257Z,6.97
2017-12-06T12:23:57.249Z,6.89
2017-12-06T12:24:57.246Z,6.95
2017-12-06T12:25:57.239Z,7.02
2017-12-06T12:26:57.234Z,6.96
2017-12-06T12:27:57.231Z,6.87
2017-12-06T12:28:57.227Z,6.93
2017-12-06T12:29:57.216Z,6.89
2017-12-06T12:30:57.222Z,6.88
2017-12-06T12:31:57.215Z,6.89
2017-12-06T12:32:57.207Z,6.93
2017-12-06T12:33:57.202Z,6.88
2017-12-06T12:34:57.197Z,7.03
2017-12-06T12:35:57.192Z,6.96
2017-12-06T12:36:57.186Z,7.02
2017-12-06T12:37:57.184Z,6.89
2017-12-06T12:38:57.178Z,7.00
2017-12-06T12:39:57.233Z,7.06
2017-12-06T12:40:57.175Z,6.85
2017-12-06T12:41:57.166Z,7.03
2017-12-06T12:42:57.157Z,6.89
2017-12-06T12:43:57.156Z,6.96
2017-12-06T12:44:57.154Z,7.00
2017-12-06T12:45:57.145Z,6.92
2017-12-06T12:46:57.140Z,6.92
2017-12-06T12:47:57.134Z,7.00
2017-12-06T12:48:57.131Z,6.99
2017-12-06T12:49:57.126Z,7.00
2017-12-06T12:50:57.128Z,7.05
2017-12-06T12:51:57.120Z,7.02
2017-12-06T12:52:57.114Z,6.89
2017-12-06T12:53:57.110Z,6.96
2017-12-06T12:54:57.102Z,7.00
2017-12-06T12:55:57.098Z,6.89
2017-12-06T12:56:57.091Z,7.00
2017-12-06T12:57:57.090Z,6.93
2017-12-06T12:58:57.082Z,7.05
2017-12-06T12:59:57.097Z,6.92
2017-12-06T13:00:57.078Z,7.00
2017-12-06T13:01:57.089Z,7.05
2017-12-06T13:02:57.067Z,7.00
2017-12-06T13:03:57.058Z,7.02
2017-12-06T13:04:57.052Z,6.88
2017-12-06T13:05:57.053Z,7.02
2017-12-06T13:06:57.043Z,7.00
2017-12-06T13:07:57.040Z,7.07
2017-12-06T13:08:57.036Z,7.00
2017-12-06T13:09:57.029Z,7.02
2017-12-06T13:10:57.024Z,7.02
2017-12-06T13:11:57.020Z,6.88
2017-12-06T13:12:57.016Z,6.88
2017-12-06T13:13:57.010Z,6.92
2017-12-06T13:14:57.005Z,6.92
2017-12-06T13:15:57.002Z,7.02
2017-12-06T13:16:56.998Z,6.92
2017-12-06T13:17:56.991Z,7.05
2017-12-06T13:18:56.987Z,6.88
2017-12-06T13:19:56.981Z,7.03
2017-12-06T13:20:56.975Z,7.02
2017-12-06T13:21:56.997Z,6.88
2017-12-06T13:22:56.977Z,6.79
2017-12-06T13:23:56.965Z,6.82
2017-12-06T13:24:56.958Z,6.84
2017-12-06T13:25:56.953Z,6.88
2017-12-06T13:26:56.945Z,6.88
2017-12-06T13:27:56.938Z,6.95
2017-12-06T13:28:56.938Z,6.88
2017-12-06T13:29:56.930Z,6.89
2017-12-06T13:30:56.939Z,7.06
2017-12-06T13:31:56.922Z,7.03
2017-12-06T13:32:56.916Z,6.93
2017-12-06T13:33:56.913Z,6.92
2017-12-06T13:34:56.909Z,6.89
2017-12-06T13:35:56.905Z,6.84
2017-12-06T13:36:56.901Z,6.84
2017-12-06T13:37:56.896Z,6.82
2017-12-06T13:38:56.892Z,6.93
2017-12-06T13:39:56.881Z,6.99
2017-12-06T13:40:56.879Z,6.99
2017-12-06T13:41:56.875Z,6.88
2017-12-06T13:42:56.870Z,7.02
2017-12-06T13:43:56.866Z,7.06
2017-12-06T13:44:56.861Z,7.02
2017-12-06T13:45:56.857Z,7.02
2017-12-06T13:46:56.850Z,7.00
2017-12-06T13:47:56.882Z,7.11
2017-12-06T13:48:56.841Z,7.02
2017-12-06T13:49:56.836Z,6.99
2017-12-06T13:50:56.832Z,6.99
2017-12-06T13:51:56.827Z,7.02
2017-12-06T13:52:56.822Z,7.02
2017-12-06T13:53:56.816Z,6.99
2017-12-06T13:54:56.812Z,6.92
2017-12-06T13:55:56.849Z,6.89
2017-12-06T13:56:56.804Z,6.93
2017-12-06T13:57:56.800Z,7.03
2017-12-06T13:58:56.797Z,7.00
2017-12-06T13:59:56.788Z,7.02
2017-12-06T14:00:56.781Z,7.02
2017-12-06T14:01:56.780Z,6.89
2017-12-06T14:02:56.775Z,6.99
2017-12-06T14:03:56.780Z,7.03
2017-12-06T14:04:56.765Z,6.85
2017-12-06T14:05:56.760Z,6.97
2017-12-06T14:06:56.754Z,6.87
2017-12-06T14:07:56.792Z,6.82
2017-12-06T14:08:56.744Z,6.92
2017-12-06T14:09:56.735Z,6.93
2017-12-06T14:10:56.734Z,6.92
2017-12-06T14:11:56.729Z,6.89
2017-12-06T14:12:56.730Z,6.92
2017-12-06T14:13:56.733Z,6.89
2017-12-06T14:14:56.715Z,6.81
2017-12-06T14:15:56.709Z,6.84
2017-12-06T14:16:56.706Z,6.95
2017-12-06T14:17:56.701Z,6.89
2017-12-06T14:18:56.715Z,6.96
2017-12-06T14:19:56.690Z,6.93
2017-12-06T14:20:56.686Z,6.92
2017-12-06T14:21:56.683Z,6.89
2017-12-06T14:22:56.677Z,7.05
2017-12-06T14:23:56.670Z,7.03
2017-12-06T14:24:56.667Z,6.97
2017-12-06T14:25:56.659Z,6.97
2017-12-06T14:26:56.656Z,6.89
2017-12-06T14:27:56.649Z,7.06
2017-12-06T14:28:56.650Z,7.03
2017-12-06T14:29:56.650Z,6.92
2017-12-06T14:30:56.643Z,6.89
2017-12-06T14:31:56.627Z,6.85
2017-12-06T14:32:56.642Z,6.84
2017-12-06T14:33:56.622Z,6.81
2017-12-06T14:34:56.620Z,6.82
2017-12-06T14:35:56.614Z,6.87
2017-12-06T14:36:56.609Z,6.85
2017-12-06T14:37:56.605Z,6.93
2017-12-06T14:38:56.599Z,6.85
2017-12-06T14:39:56.593Z,6.82
2017-12-06T14:40:56.588Z,6.81
2017-12-06T14:41:56.585Z,6.82
2017-12-06T14:42:56.576Z,6.87
2017-12-06T14:43:56.573Z,6.82
2017-12-06T14:44:56.573Z,6.84
2017-12-06T14:45:56.566Z,6.89
2017-12-06T14:46:56.558Z,6.89
2017-12-06T14:47:56.553Z,6.87
2017-12-06T14:48:56.547Z,6.84
2017-12-06T14:49:56.544Z,6.78
2017-12-06T14:50:56.540Z,6.74
2017-12-06T14:51:56.532Z,6.63
2017-12-06T14:52:56.526Z,6.75
2017-12-06T14:53:56.523Z,6.74
2017-12-06T14:54:56.519Z,6.66
2017-12-06T14:55:56.511Z,6.66
2017-12-06T14:56:56.509Z,6.67
2017-12-06T14:57:56.506Z,6.70
2017-12-06T14:58:56.499Z,6.74
2017-12-06T14:59:56.494Z,6.77
2017-12-06T15:00:56.490Z,6.75
2017-12-06T15:01:56.490Z,6.85
2017-12-06T15:02:56.490Z,6.75
2017-12-06T15:03:56.470Z,6.75
2017-12-06T15:04:56.468Z,6.77
2017-12-06T15:05:56.462Z,6.84
2017-12-06T15:06:56.457Z,6.92
2017-12-06T15:07:56.451Z,6.74
2017-12-06T15:08:56.450Z,6.79
2017-12-06T15:09:56.445Z,6.75
2017-12-06T15:10:56.444Z,6.79
2017-12-06T15:11:56.432Z,6.84
2017-12-06T15:12:56.425Z,6.88
2017-12-06T15:13:56.419Z,6.84
2017-12-06T15:14:56.414Z,6.81
2017-12-06T15:15:56.412Z,6.87
2017-12-06T15:16:56.406Z,6.96
2017-12-06T15:17:56.401Z,6.89
2017-12-06T15:18:56.395Z,6.88
2017-12-06T15:19:56.389Z,6.89
2017-12-06T15:20:56.389Z,6.89
2017-12-06T15:21:56.379Z,6.95
2017-12-06T15:22:56.377Z,6.99
2017-12-06T15:23:56.367Z,6.88
2017-12-06T15:24:56.363Z,6.88
2017-12-06T15:25:56.363Z,6.96
2017-12-06T15:26:56.359Z,6.99
2017-12-06T15:27:56.351Z,7.05
2017-12-06T15:28:56.346Z,6.99
2017-12-06T15:29:56.339Z,6.89
2017-12-06T15:30:56.332Z,6.81
2017-12-06T15:31:56.333Z,6.85
2017-12-06T15:32:56.326Z,6.78
2017-12-06T15:33:56.319Z,6.88
2017-12-06T15:34:56.315Z,6.84
2017-12-06T15:35:56.309Z,6.89
2017-12-06T15:36:56.306Z,6.88
2017-12-06T15:37:56.298Z,6.87
2017-12-06T15:38:56.303Z,6.85
2017-12-06T15:39:56.298Z,6.75
2017-12-06T15:40:56.286Z,6.77
2017-12-06T15:41:56.279Z,6.75
2017-12-06T15:42:56.273Z,6.75
2017-12-06T15:43:56.271Z,6.72
2017-12-06T15:44:56.266Z,6.85
2017-12-06T15:45:56.261Z,6.78
2017-12-06T15:46:56.260Z,6.67
2017-12-06T15:47:56.251Z,6.77
2017-12-06T15:48:56.245Z,6.78
2017-12-06T15:49:56.243Z,6.81
2017-12-06T15:50:56.229Z,6.72
2017-12-06T15:51:56.232Z,6.81
2017-12-06T15:52:56.224Z,6.81
2017-12-06T15:53:56.220Z,6.84
2017-12-06T15:54:56.213Z,6.84
2017-12-06T15:55:56.284Z,6.89
2017-12-06T15:56:56.208Z,6.95
2017-12-06T15:57:56.241Z,6.97
2017-12-06T15:58:56.194Z,6.87
2017-12-06T15:59:56.191Z,6.87
2017-12-06T16:00:56.200Z,6.87
2017-12-06T16:01:56.179Z,6.89
2017-12-06T16:02:56.174Z,6.95
2017-12-06T16:03:56.169Z,7.06
2017-12-06T16:04:56.165Z,6.89
2017-12-06T16:05:56.161Z,6.92
2017-12-06T16:06:56.155Z,6.92
2017-12-06T16:07:56.149Z,6.92
2017-12-06T16:08:56.145Z,6.92
2017-12-06T16:09:56.140Z,6.92
2017-12-06T16:10:56.132Z,6.81
2017-12-06T16:11:56.128Z,6.82
2017-12-06T16:12:56.125Z,6.85
2017-12-06T16:13:56.121Z,6.84
2017-12-06T16:14:56.120Z,6.84
2017-12-06T16:15:56.109Z,6.88
2017-12-06T16:16:56.109Z,6.88
2017-12-06T16:17:56.147Z,7.02
2017-12-06T16:18:56.099Z,6.89
2017-12-06T16:19:56.100Z,6.93
2017-12-06T16:20:56.080Z,6.92
2017-12-06T16:21:56.080Z,6.88
2017-12-06T16:22:56.076Z,6.95
2017-12-06T16:23:56.069Z,6.85
2017-12-06T16:24:56.068Z,7.02
2017-12-06T16:25:56.060Z,7.05
2017-12-06T16:26:56.053Z,7.03
2017-12-06T16:27:56.049Z,6.89
2017-12-06T16:28:56.045Z,6.97
2017-12-06T16:29:56.040Z,6.97
2017-12-06T16:30:56.053Z,6.89
2017-12-06T16:31:56.027Z,6.99
2017-12-06T16:32:56.025Z,6.95
2017-12-06T16:33:56.022Z,6.92
2017-12-06T16:34:56.011Z,6.87
2017-12-06T16:35:56.011Z,7.02
2017-12-06T16:36:56.007Z,6.97
2017-12-06T16:37:56.001Z,6.96
2017-12-06T16:38:55.997Z,6.92
2017-12-06T16:39:55.985Z,6.95
2017-12-06T16:40:56.040Z,6.96
2017-12-06T16:41:55.982Z,6.88
2017-12-06T16:42:55.978Z,6.99
2017-12-06T16:43:55.969Z,6.97
2017-12-06T16:44:55.968Z,6.96
2017-12-06T16:45:55.967Z,6.89
2017-12-06T16:46:55.957Z,6.82
2017-12-06T16:47:55.952Z,6.87
2017-12-06T16:48:55.947Z,6.79
2017-12-06T16:49:55.946Z,6.79
2017-12-06T16:50:55.937Z,6.88
2017-12-06T16:51:55.932Z,6.82
2017-12-06T16:52:55.937Z,6.88
2017-12-06T16:53:55.929Z,6.88
2017-12-06T16:54:55.917Z,6.82
2017-12-06T16:55:55.916Z,6.84
2017-12-06T16:56:55.907Z,6.79
2017-12-06T16:57:55.904Z,6.75
2017-12-06T16:58:55.894Z,6.84
2017-12-06T16:59:55.892Z,6.85
2017-12-06T17:00:55.886Z,6.81
2017-12-06T17:01:55.883Z,6.84
2017-12-06T17:02:55.878Z,6.84
2017-12-06T17:03:55.872Z,6.81
2017-12-06T17:04:55.872Z,6.78
2017-12-06T17:05:55.863Z,6.85
2017-12-06T17:06:55.853Z,6.89
2017-12-06T17:07:55.852Z,6.84
2017-12-06T17:08:55.845Z,6.85
2017-12-06T17:09:55.839Z,6.79
2017-12-06T17:10:55.835Z,6.88
2017-12-06T17:11:55.830Z,6.81
2017-12-06T17:12:55.826Z,6.82
2017-12-06T17:13:55.851Z,6.70
2017-12-06T17:14:55.814Z,6.77
2017-12-06T17:15:55.811Z,6.72
2017-12-06T17:16:55.804Z,6.75
2017-12-06T17:17:55.806Z,6.72
2017-12-06T17:18:55.794Z,6.77
2017-12-06T17:19:55.790Z,6.85
2017-12-06T17:20:55.786Z,6.77
2017-12-06T17:21:55.783Z,6.88
2017-12-06T17:22:55.774Z,6.85
2017-12-06T17:23:55.770Z,6.75
2017-12-06T17:24:55.766Z,6.88
2017-12-06T17:25:55.762Z,6.87
2017-12-06T17:26:55.766Z,6.92
2017-12-06T17:27:55.749Z,6.82
2017-12-06T17:28:55.746Z,6.88
2017-12-06T17:29:55.743Z,6.97
2017-12-06T17:30:55.736Z,6.97
2017-12-06T17:31:55.729Z,6.97
2017-12-06T17:32:55.728Z,6.87
2017-12-06T17:33:55.719Z,7.02
2017-12-06T17:34:55.716Z,6.92
2017-12-06T17:35:55.712Z,6.95
2017-12-06T17:36:55.706Z,6.82
2017-12-06T17:37:55.703Z,6.82
2017-12-06T17:38:55.692Z,6.79
2017-12-06T17:39:55.689Z,6.92
2017-12-06T17:40:55.686Z,6.82
2017-12-06T17:41:55.680Z,6.84
2017-12-06T17:42:55.674Z,6.89
2017-12-06T17:43:55.668Z,6.88
2017-12-06T17:44:55.666Z,6.84
2017-12-06T17:45:55.659Z,6.82
2017-12-06T17:46:55.655Z,6.97
2017-12-06T17:47:55.645Z,6.89
2017-12-06T17:48:55.669Z,7.00
2017-12-06T17:49:55.640Z,7.02
2017-12-06T17:50:55.636Z,7.00
2017-12-06T17:51:55.629Z,7.00
2017-12-06T17:52:55.626Z,6.92
2017-12-06T17:53:55.617Z,6.87
2017-12-06T17:54:55.614Z,7.06
2017-12-06T17:55:55.610Z,7.03
2017-12-06T17:56:55.605Z,6.97
2017-12-06T17:57:55.600Z,6.99
2017-12-06T17:58:55.596Z,7.02
2017-12-06T17:59:55.592Z,6.99
2017-12-06T18:00:55.603Z,7.02
2017-12-06T18:01:55.580Z,7.11
2017-12-06T18:02:55.575Z,7.15
2017-12-06T18:03:55.615Z,7.17
2017-12-06T18:04:55.560Z,7.14
2017-12-06T18:05:55.564Z,7.05
2017-12-06T18:06:55.560Z,7.17
2017-12-06T18:07:55.551Z,7.15
2017-12-06T18:08:55.546Z,7.02
2017-12-06T18:09:55.541Z,7.05
2017-12-06T18:10:55.536Z,7.06
2017-12-06T18:11:55.529Z,7.00
2017-12-06T18:12:55.527Z,6.93
2017-12-06T18:13:55.522Z,6.97
2017-12-06T18:14:55.516Z,6.99
2017-12-06T18:15:55.510Z,6.88
2017-12-06T18:16:55.508Z,6.87
2017-12-06T18:17:55.500Z,6.88
2017-12-06T18:18:55.497Z,6.95
2017-12-06T18:19:55.493Z,6.89
2017-12-06T18:20:55.489Z,6.87
2017-12-06T18:21:55.480Z,6.92
2017-12-06T18:22:55.477Z,6.95
2017-12-06T18:23:55.472Z,6.87
2017-12-06T18:24:55.475Z,6.88
2017-12-06T18:25:55.462Z,6.89
2017-12-06T18:26:55.464Z,6.92
2017-12-06T18:27:55.453Z,6.88
2017-12-06T18:28:55.463Z,6.87
2017-12-06T18:29:55.438Z,6.92
2017-12-06T18:30:55.466Z,6.97
2017-12-06T18:31:55.434Z,7.05
2017-12-06T18:32:55.428Z,7.05
2017-12-06T18:33:55.424Z,7.06
2017-12-06T18:34:55.418Z,7.02
2017-12-06T18:35:55.423Z,7.02
2017-12-06T18:36:55.410Z,7.03
2017-12-06T18:37:55.404Z,7.02
2017-12-06T18:38:55.398Z,7.02
2017-12-06T18:39:55.406Z,7.02
2017-12-06T18:40:55.392Z,7.05
2017-12-06T18:41:55.416Z,6.99
2017-12-06T18:42:55.380Z,6.89
2017-12-06T18:43:55.373Z,7.00
2017-12-06T18:44:55.376Z,6.93
2017-12-06T18:45:55.363Z,6.89
2017-12-06T18:46:55.360Z,7.03
2017-12-06T18:47:55.370Z,7.02
2017-12-06T18:48:55.352Z,6.99
2017-12-06T18:49:55.345Z,6.85
2017-12-06T18:50:55.342Z,6.97
2017-12-06T18:51:55.333Z,6.88
2017-12-06T18:52:55.330Z,7.00
2017-12-06T18:53:55.326Z,6.99
2017-12-06T18:54:55.326Z,6.89
2017-12-06T18:55:55.320Z,6.88
2017-12-06T18:56:55.307Z,6.95
2017-12-06T18:57:55.306Z,6.88